sensor_id;sensor_type;location;lat;lon;timestamp;P1;durP1;ratioP1;P2;durP2;ratioP2
71888;SDS011;59762;49.998;14.858;2023-07-20T00:01:03;3.13;;;2.55;;
71888;SDS011;59762;49.998;14.858;2023-07-20T00:03:32;3.10;;;1.70;;
71888;SDS011;59762;49.998;14.858;2023-07-20T00:05:57;2.42;;;1.60;;
71888;SDS011;59762;49.998;14.858;2023-07-20T00:08:23;2.30;;;1.70;;
71888;SDS011;59762;49.998;14.858;2023-07-20T00:10:49;6.63;;;1.65;;
71888;SDS011;59762;49.998;14.858;2023-07-20T00:13:15;2.05;;;1.40;;
71888;SDS011;59762;49.998;14.858;2023-07-20T00:15:41;5.72;;;1.70;;
71888;SDS011;59762;49.998;14.858;2023-07-20T00:18:07;6.55;;;2.03;;
71888;SDS011;59762;49.998;14.858;2023-07-20T00:20:33;5.20;;;1.50;;
71888;SDS011;59762;49.998;14.858;2023-07-20T00:22:58;3.35;;;1.85;;
71888;SDS011;59762;49.998;14.858;2023-07-20T00:25:24;3.10;;;1.80;;
71888;SDS011;59762;49.998;14.858;2023-07-20T00:27:50;3.42;;;1.77;;
71888;SDS011;59762;49.998;14.858;2023-07-20T00:30:16;3.60;;;1.63;;
71888;SDS011;59762;49.998;14.858;2023-07-20T00:32:42;3.25;;;2.20;;
71888;SDS011;59762;49.998;14.858;2023-07-20T00:35:08;2.85;;;1.75;;
71888;SDS011;59762;49.998;14.858;2023-07-20T00:37:36;3.20;;;1.40;;
71888;SDS011;59762;49.998;14.858;2023-07-20T00:40:02;2.33;;;1.70;;
71888;SDS011;59762;49.998;14.858;2023-07-20T00:42:30;3.47;;;1.60;;
71888;SDS011;59762;49.998;14.858;2023-07-20T00:44:56;4.43;;;2.05;;
71888;SDS011;59762;49.998;14.858;2023-07-20T00:47:22;9.57;;;2.58;;
71888;SDS011;59762;49.998;14.858;2023-07-20T00:49:47;4.55;;;2.78;;
71888;SDS011;59762;49.998;14.858;2023-07-20T00:52:14;6.88;;;2.75;;
71888;SDS011;59762;49.998;14.858;2023-07-20T00:57:36;6.10;;;2.20;;
71888;SDS011;59762;49.998;14.858;2023-07-20T01:00:02;5.22;;;2.47;;
71888;SDS011;59762;49.998;14.858;2023-07-20T01:02:28;4.55;;;2.25;;
71888;SDS011;59762;49.998;14.858;2023-07-20T01:04:53;5.18;;;2.33;;
71888;SDS011;59762;49.998;14.858;2023-07-20T01:10:01;7.55;;;2.40;;
71888;SDS011;59762;49.998;14.858;2023-07-20T01:12:33;5.80;;;2.47;;
71888;SDS011;59762;49.998;14.858;2023-07-20T01:17:33;6.15;;;3.05;;
71888;SDS011;59762;49.998;14.858;2023-07-20T01:19:59;7.43;;;4.03;;
71888;SDS011;59762;49.998;14.858;2023-07-20T01:28:31;4.00;;;2.30;;
71888;SDS011;59762;49.998;14.858;2023-07-20T01:33:50;3.65;;;1.95;;
71888;SDS011;59762;49.998;14.858;2023-07-20T01:36:19;2.45;;;1.65;;
71888;SDS011;59762;49.998;14.858;2023-07-20T01:38:47;3.78;;;2.00;;
71888;SDS011;59762;49.998;14.858;2023-07-20T01:41:13;4.03;;;1.90;;
71888;SDS011;59762;49.998;14.858;2023-07-20T01:43:40;5.13;;;1.80;;
71888;SDS011;59762;49.998;14.858;2023-07-20T01:46:05;5.57;;;2.30;;
71888;SDS011;59762;49.998;14.858;2023-07-20T01:48:32;6.53;;;2.15;;
71888;SDS011;59762;49.998;14.858;2023-07-20T01:50:57;6.63;;;2.63;;
71888;SDS011;59762;49.998;14.858;2023-07-20T01:53:23;3.30;;;1.85;;
71888;SDS011;59762;49.998;14.858;2023-07-20T01:55:49;3.97;;;1.83;;
71888;SDS011;59762;49.998;14.858;2023-07-20T01:58:15;3.15;;;1.92;;
71888;SDS011;59762;49.998;14.858;2023-07-20T02:00:40;3.50;;;2.45;;
71888;SDS011;59762;49.998;14.858;2023-07-20T02:03:06;5.97;;;2.00;;
71888;SDS011;59762;49.998;14.858;2023-07-20T02:05:33;3.35;;;1.80;;
71888;SDS011;59762;49.998;14.858;2023-07-20T02:07:59;3.33;;;2.10;;
71888;SDS011;59762;49.998;14.858;2023-07-20T02:10:24;3.15;;;1.90;;
71888;SDS011;59762;49.998;14.858;2023-07-20T02:12:50;4.13;;;1.80;;
71888;SDS011;59762;49.998;14.858;2023-07-20T02:15:16;2.78;;;1.88;;
71888;SDS011;59762;49.998;14.858;2023-07-20T02:17:42;5.70;;;1.88;;
71888;SDS011;59762;49.998;14.858;2023-07-20T02:20:08;3.13;;;2.00;;
71888;SDS011;59762;49.998;14.858;2023-07-20T02:22:36;3.20;;;1.90;;
71888;SDS011;59762;49.998;14.858;2023-07-20T02:25:05;3.70;;;1.90;;
71888;SDS011;59762;49.998;14.858;2023-07-20T02:27:33;2.40;;;1.83;;
71888;SDS011;59762;49.998;14.858;2023-07-20T02:29:59;3.00;;;2.25;;
71888;SDS011;59762;49.998;14.858;2023-07-20T02:32:25;4.80;;;2.28;;
71888;SDS011;59762;49.998;14.858;2023-07-20T02:34:50;3.13;;;2.45;;
71888;SDS011;59762;49.998;14.858;2023-07-20T02:37:16;5.00;;;2.17;;
71888;SDS011;59762;49.998;14.858;2023-07-20T02:39:42;3.28;;;1.90;;
71888;SDS011;59762;49.998;14.858;2023-07-20T02:42:08;3.35;;;2.28;;
71888;SDS011;59762;49.998;14.858;2023-07-20T02:44:34;2.53;;;1.95;;
71888;SDS011;59762;49.998;14.858;2023-07-20T02:46:59;6.07;;;2.20;;
71888;SDS011;59762;49.998;14.858;2023-07-20T02:49:26;5.85;;;2.47;;
71888;SDS011;59762;49.998;14.858;2023-07-20T02:51:52;4.20;;;2.40;;
71888;SDS011;59762;49.998;14.858;2023-07-20T02:54:17;6.82;;;2.42;;
71888;SDS011;59762;49.998;14.858;2023-07-20T02:56:43;3.38;;;1.60;;
71888;SDS011;59762;49.998;14.858;2023-07-20T02:59:09;3.80;;;2.28;;
71888;SDS011;59762;49.998;14.858;2023-07-20T03:01:35;3.72;;;2.30;;
71888;SDS011;59762;49.998;14.858;2023-07-20T03:04:00;3.22;;;1.92;;
71888;SDS011;59762;49.998;14.858;2023-07-20T03:06:26;2.65;;;1.75;;
71888;SDS011;59762;49.998;14.858;2023-07-20T03:08:52;5.35;;;2.22;;
71888;SDS011;59762;49.998;14.858;2023-07-20T03:11:18;5.10;;;2.05;;
71888;SDS011;59762;49.998;14.858;2023-07-20T03:13:45;8.00;;;2.28;;
71888;SDS011;59762;49.998;14.858;2023-07-20T03:16:12;3.55;;;2.00;;
71888;SDS011;59762;49.998;14.858;2023-07-20T03:18:40;3.72;;;2.05;;
71888;SDS011;59762;49.998;14.858;2023-07-20T03:21:08;3.97;;;1.80;;
71888;SDS011;59762;49.998;14.858;2023-07-20T03:23:36;2.88;;;2.10;;
71888;SDS011;59762;49.998;14.858;2023-07-20T03:26:02;3.60;;;2.17;;
71888;SDS011;59762;49.998;14.858;2023-07-20T03:28:28;4.47;;;2.05;;
71888;SDS011;59762;49.998;14.858;2023-07-20T03:30:57;3.63;;;2.13;;
71888;SDS011;59762;49.998;14.858;2023-07-20T03:33:25;6.65;;;2.38;;
71888;SDS011;59762;49.998;14.858;2023-07-20T03:35:53;2.70;;;1.63;;
71888;SDS011;59762;49.998;14.858;2023-07-20T03:38:19;5.88;;;2.50;;
71888;SDS011;59762;49.998;14.858;2023-07-20T03:40:58;3.63;;;2.50;;
71888;SDS011;59762;49.998;14.858;2023-07-20T03:43:25;4.15;;;1.77;;
71888;SDS011;59762;49.998;14.858;2023-07-20T03:45:52;3.88;;;2.20;;
71888;SDS011;59762;49.998;14.858;2023-07-20T03:48:19;5.13;;;1.92;;
71888;SDS011;59762;49.998;14.858;2023-07-20T03:50:48;6.68;;;2.08;;
71888;SDS011;59762;49.998;14.858;2023-07-20T03:53:14;3.72;;;2.30;;
71888;SDS011;59762;49.998;14.858;2023-07-20T03:55:41;6.22;;;2.10;;
71888;SDS011;59762;49.998;14.858;2023-07-20T03:58:09;3.22;;;2.20;;
71888;SDS011;59762;49.998;14.858;2023-07-20T04:00:35;3.53;;;1.85;;
71888;SDS011;59762;49.998;14.858;2023-07-20T04:03:00;3.03;;;2.20;;
71888;SDS011;59762;49.998;14.858;2023-07-20T04:05:26;3.22;;;1.90;;
71888;SDS011;59762;49.998;14.858;2023-07-20T04:07:52;3.88;;;2.15;;
71888;SDS011;59762;49.998;14.858;2023-07-20T04:10:18;6.25;;;1.95;;
71888;SDS011;59762;49.998;14.858;2023-07-20T04:12:46;2.85;;;1.98;;
71888;SDS011;59762;49.998;14.858;2023-07-20T04:15:13;4.35;;;2.13;;
71888;SDS011;59762;49.998;14.858;2023-07-20T04:17:39;6.57;;;2.17;;
71888;SDS011;59762;49.998;14.858;2023-07-20T04:20:06;3.33;;;1.95;;
71888;SDS011;59762;49.998;14.858;2023-07-20T04:22:32;3.38;;;2.13;;
71888;SDS011;59762;49.998;14.858;2023-07-20T04:24:58;4.22;;;1.90;;
71888;SDS011;59762;49.998;14.858;2023-07-20T04:27:24;5.50;;;2.38;;
71888;SDS011;59762;49.998;14.858;2023-07-20T04:29:50;4.95;;;2.08;;
71888;SDS011;59762;49.998;14.858;2023-07-20T04:32:15;5.03;;;1.92;;
71888;SDS011;59762;49.998;14.858;2023-07-20T04:34:41;3.25;;;2.20;;
71888;SDS011;59762;49.998;14.858;2023-07-20T04:37:07;2.50;;;1.67;;
71888;SDS011;59762;49.998;14.858;2023-07-20T04:39:33;3.88;;;1.80;;
71888;SDS011;59762;49.998;14.858;2023-07-20T04:41:58;2.88;;;1.85;;
71888;SDS011;59762;49.998;14.858;2023-07-20T04:44:24;5.43;;;2.30;;
71888;SDS011;59762;49.998;14.858;2023-07-20T04:46:50;2.58;;;2.20;;
71888;SDS011;59762;49.998;14.858;2023-07-20T04:49:16;2.63;;;2.05;;
71888;SDS011;59762;49.998;14.858;2023-07-20T04:51:41;2.95;;;1.92;;
71888;SDS011;59762;49.998;14.858;2023-07-20T04:54:07;3.13;;;1.98;;
71888;SDS011;59762;49.998;14.858;2023-07-20T04:56:32;4.03;;;2.13;;
71888;SDS011;59762;49.998;14.858;2023-07-20T04:58:58;6.22;;;2.35;;
71888;SDS011;59762;49.998;14.858;2023-07-20T05:01:24;3.13;;;1.92;;
71888;SDS011;59762;49.998;14.858;2023-07-20T05:03:52;2.67;;;2.10;;
71888;SDS011;59762;49.998;14.858;2023-07-20T05:06:18;3.17;;;1.70;;
71888;SDS011;59762;49.998;14.858;2023-07-20T05:08:43;3.30;;;2.13;;
71888;SDS011;59762;49.998;14.858;2023-07-20T05:11:10;3.83;;;2.13;;
71888;SDS011;59762;49.998;14.858;2023-07-20T05:13:36;2.90;;;1.80;;
71888;SDS011;59762;49.998;14.858;2023-07-20T05:16:01;5.47;;;1.80;;
71888;SDS011;59762;49.998;14.858;2023-07-20T05:18:27;3.90;;;2.17;;
71888;SDS011;59762;49.998;14.858;2023-07-20T05:20:53;2.83;;;2.00;;
71888;SDS011;59762;49.998;14.858;2023-07-20T05:23:20;3.33;;;1.85;;
71888;SDS011;59762;49.998;14.858;2023-07-20T05:25:47;3.28;;;1.95;;
71888;SDS011;59762;49.998;14.858;2023-07-20T05:28:19;4.72;;;2.28;;
71888;SDS011;59762;49.998;14.858;2023-07-20T05:30:44;3.83;;;1.83;;
71888;SDS011;59762;49.998;14.858;2023-07-20T05:33:10;2.85;;;1.98;;
71888;SDS011;59762;49.998;14.858;2023-07-20T05:35:36;3.80;;;2.20;;
71888;SDS011;59762;49.998;14.858;2023-07-20T05:38:03;3.55;;;2.13;;
71888;SDS011;59762;49.998;14.858;2023-07-20T05:40:30;6.05;;;2.00;;
71888;SDS011;59762;49.998;14.858;2023-07-20T05:42:56;3.88;;;2.05;;
71888;SDS011;59762;49.998;14.858;2023-07-20T05:45:22;3.90;;;2.13;;
71888;SDS011;59762;49.998;14.858;2023-07-20T05:47:48;3.67;;;1.90;;
71888;SDS011;59762;49.998;14.858;2023-07-20T05:50:14;2.92;;;1.90;;
71888;SDS011;59762;49.998;14.858;2023-07-20T05:52:40;2.83;;;2.10;;
71888;SDS011;59762;49.998;14.858;2023-07-20T05:55:06;2.47;;;1.90;;
71888;SDS011;59762;49.998;14.858;2023-07-20T05:57:33;2.25;;;1.88;;
71888;SDS011;59762;49.998;14.858;2023-07-20T05:59:59;2.90;;;2.22;;
71888;SDS011;59762;49.998;14.858;2023-07-20T06:02:24;3.28;;;2.67;;
71888;SDS011;59762;49.998;14.858;2023-07-20T06:04:50;3.70;;;2.17;;
71888;SDS011;59762;49.998;14.858;2023-07-20T06:07:16;3.00;;;1.80;;
71888;SDS011;59762;49.998;14.858;2023-07-20T06:09:41;3.22;;;2.30;;
71888;SDS011;59762;49.998;14.858;2023-07-20T06:12:07;2.95;;;1.90;;
71888;SDS011;59762;49.998;14.858;2023-07-20T06:14:33;3.17;;;2.05;;
71888;SDS011;59762;49.998;14.858;2023-07-20T06:16:59;3.47;;;2.00;;
71888;SDS011;59762;49.998;14.858;2023-07-20T06:19:24;6.47;;;2.42;;
71888;SDS011;59762;49.998;14.858;2023-07-20T06:21:50;4.30;;;2.05;;
71888;SDS011;59762;49.998;14.858;2023-07-20T06:24:16;3.22;;;2.00;;
71888;SDS011;59762;49.998;14.858;2023-07-20T06:26:43;2.90;;;1.90;;
71888;SDS011;59762;49.998;14.858;2023-07-20T06:29:08;5.75;;;1.83;;
71888;SDS011;59762;49.998;14.858;2023-07-20T06:31:34;3.15;;;1.90;;
71888;SDS011;59762;49.998;14.858;2023-07-20T06:34:01;3.55;;;1.95;;
71888;SDS011;59762;49.998;14.858;2023-07-20T06:36:26;4.15;;;2.08;;
71888;SDS011;59762;49.998;14.858;2023-07-20T06:38:52;2.10;;;1.75;;
71888;SDS011;59762;49.998;14.858;2023-07-20T06:41:18;3.03;;;2.05;;
71888;SDS011;59762;49.998;14.858;2023-07-20T06:43:44;5.68;;;1.88;;
71888;SDS011;59762;49.998;14.858;2023-07-20T06:46:10;3.55;;;2.03;;
71888;SDS011;59762;49.998;14.858;2023-07-20T06:48:36;3.22;;;2.20;;
71888;SDS011;59762;49.998;14.858;2023-07-20T06:51:02;5.13;;;2.30;;
71888;SDS011;59762;49.998;14.858;2023-07-20T06:53:28;3.10;;;2.20;;
71888;SDS011;59762;49.998;14.858;2023-07-20T06:55:54;3.25;;;2.00;;
71888;SDS011;59762;49.998;14.858;2023-07-20T06:58:23;3.65;;;2.13;;
71888;SDS011;59762;49.998;14.858;2023-07-20T07:00:49;3.53;;;2.40;;
71888;SDS011;59762;49.998;14.858;2023-07-20T07:03:14;5.10;;;2.30;;
71888;SDS011;59762;49.998;14.858;2023-07-20T07:05:40;5.35;;;2.22;;
71888;SDS011;59762;49.998;14.858;2023-07-20T07:08:06;4.72;;;2.22;;
71888;SDS011;59762;49.998;14.858;2023-07-20T07:10:35;2.97;;;2.65;;
71888;SDS011;59762;49.998;14.858;2023-07-20T07:13:01;3.92;;;2.72;;
71888;SDS011;59762;49.998;14.858;2023-07-20T07:15:28;2.72;;;2.28;;
71888;SDS011;59762;49.998;14.858;2023-07-20T07:17:53;4.45;;;2.63;;
71888;SDS011;59762;49.998;14.858;2023-07-20T07:20:20;3.70;;;2.65;;
71888;SDS011;59762;49.998;14.858;2023-07-20T07:22:45;3.72;;;2.40;;
71888;SDS011;59762;49.998;14.858;2023-07-20T07:25:13;3.33;;;2.47;;
71888;SDS011;59762;49.998;14.858;2023-07-20T07:27:39;4.57;;;2.83;;
71888;SDS011;59762;49.998;14.858;2023-07-20T07:30:05;3.13;;;1.98;;
71888;SDS011;59762;49.998;14.858;2023-07-20T07:32:31;3.05;;;1.90;;
71888;SDS011;59762;49.998;14.858;2023-07-20T07:34:57;2.67;;;2.30;;
71888;SDS011;59762;49.998;14.858;2023-07-20T07:37:25;3.45;;;2.10;;
71888;SDS011;59762;49.998;14.858;2023-07-20T07:39:51;3.28;;;2.08;;
71888;SDS011;59762;49.998;14.858;2023-07-20T07:42:17;4.22;;;1.80;;
71888;SDS011;59762;49.998;14.858;2023-07-20T07:44:44;2.88;;;1.98;;
71888;SDS011;59762;49.998;14.858;2023-07-20T07:47:10;5.22;;;2.13;;
71888;SDS011;59762;49.998;14.858;2023-07-20T07:49:36;3.30;;;1.92;;
71888;SDS011;59762;49.998;14.858;2023-07-20T07:52:01;2.88;;;2.10;;
71888;SDS011;59762;49.998;14.858;2023-07-20T07:54:28;2.55;;;2.03;;
71888;SDS011;59762;49.998;14.858;2023-07-20T07:56:54;2.47;;;2.10;;
71888;SDS011;59762;49.998;14.858;2023-07-20T07:59:20;2.83;;;1.90;;
71888;SDS011;59762;49.998;14.858;2023-07-20T08:01:45;2.55;;;1.95;;
71888;SDS011;59762;49.998;14.858;2023-07-20T08:04:11;2.67;;;2.00;;
71888;SDS011;59762;49.998;14.858;2023-07-20T08:06:37;3.22;;;2.75;;
71888;SDS011;59762;49.998;14.858;2023-07-20T08:09:03;5.15;;;2.13;;
71888;SDS011;59762;49.998;14.858;2023-07-20T08:11:28;3.30;;;2.40;;
71888;SDS011;59762;49.998;14.858;2023-07-20T08:13:56;5.45;;;2.15;;
71888;SDS011;59762;49.998;14.858;2023-07-20T08:16:22;4.05;;;2.28;;
71888;SDS011;59762;49.998;14.858;2023-07-20T08:18:47;2.92;;;2.10;;
71888;SDS011;59762;49.998;14.858;2023-07-20T08:21:13;2.67;;;2.20;;
71888;SDS011;59762;49.998;14.858;2023-07-20T08:23:39;7.22;;;2.70;;
71888;SDS011;59762;49.998;14.858;2023-07-20T08:26:05;2.35;;;1.75;;
71888;SDS011;59762;49.998;14.858;2023-07-20T08:28:31;3.40;;;1.88;;
71888;SDS011;59762;49.998;14.858;2023-07-20T08:30:56;5.60;;;2.30;;
71888;SDS011;59762;49.998;14.858;2023-07-20T08:33:22;4.82;;;2.10;;
71888;SDS011;59762;49.998;14.858;2023-07-20T08:35:48;1.92;;;1.58;;
71888;SDS011;59762;49.998;14.858;2023-07-20T08:38:14;3.30;;;1.92;;
71888;SDS011;59762;49.998;14.858;2023-07-20T08:40:40;5.13;;;2.10;;
71888;SDS011;59762;49.998;14.858;2023-07-20T08:43:08;3.33;;;1.90;;
71888;SDS011;59762;49.998;14.858;2023-07-20T08:45:35;2.85;;;2.20;;
71888;SDS011;59762;49.998;14.858;2023-07-20T08:48:03;2.22;;;1.80;;
71888;SDS011;59762;49.998;14.858;2023-07-20T08:50:31;2.80;;;1.70;;
71888;SDS011;59762;49.998;14.858;2023-07-20T08:52:58;1.73;;;1.50;;
71888;SDS011;59762;49.998;14.858;2023-07-20T08:55:27;2.75;;;1.50;;
71888;SDS011;59762;49.998;14.858;2023-07-20T08:57:55;2.80;;;1.55;;
71888;SDS011;59762;49.998;14.858;2023-07-20T09:00:21;2.00;;;1.40;;
71888;SDS011;59762;49.998;14.858;2023-07-20T09:02:52;2.40;;;1.63;;
71888;SDS011;59762;49.998;14.858;2023-07-20T09:05:19;1.88;;;1.67;;
71888;SDS011;59762;49.998;14.858;2023-07-20T09:07:45;2.88;;;1.70;;
71888;SDS011;59762;49.998;14.858;2023-07-20T09:10:11;3.13;;;1.63;;
71888;SDS011;59762;49.998;14.858;2023-07-20T09:12:38;2.58;;;2.22;;
71888;SDS011;59762;49.998;14.858;2023-07-20T09:15:05;4.15;;;2.40;;
71888;SDS011;59762;49.998;14.858;2023-07-20T09:17:32;2.95;;;2.05;;
71888;SDS011;59762;49.998;14.858;2023-07-20T09:19:58;2.92;;;2.08;;
71888;SDS011;59762;49.998;14.858;2023-07-20T09:22:30;2.50;;;1.73;;
71888;SDS011;59762;49.998;14.858;2023-07-20T09:24:56;2.92;;;1.80;;
71888;SDS011;59762;49.998;14.858;2023-07-20T09:27:39;3.00;;;2.00;;
71888;SDS011;59762;49.998;14.858;2023-07-20T09:30:06;2.20;;;1.83;;
71888;SDS011;59762;49.998;14.858;2023-07-20T09:32:40;2.25;;;1.65;;
71888;SDS011;59762;49.998;14.858;2023-07-20T09:35:13;2.35;;;1.85;;
71888;SDS011;59762;49.998;14.858;2023-07-20T09:37:41;4.35;;;1.80;;
71888;SDS011;59762;49.998;14.858;2023-07-20T09:40:12;5.57;;;2.22;;
71888;SDS011;59762;49.998;14.858;2023-07-20T09:42:41;2.42;;;1.60;;
71888;SDS011;59762;49.998;14.858;2023-07-20T09:45:07;2.47;;;1.55;;
71888;SDS011;59762;49.998;14.858;2023-07-20T09:47:35;1.77;;;1.42;;
71888;SDS011;59762;49.998;14.858;2023-07-20T09:50:03;6.38;;;1.50;;
71888;SDS011;59762;49.998;14.858;2023-07-20T09:52:29;3.60;;;1.25;;
71888;SDS011;59762;49.998;14.858;2023-07-20T09:54:55;5.90;;;2.17;;
71888;SDS011;59762;49.998;14.858;2023-07-20T09:57:22;3.50;;;1.40;;
71888;SDS011;59762;49.998;14.858;2023-07-20T09:59:48;3.08;;;1.55;;
71888;SDS011;59762;49.998;14.858;2023-07-20T10:02:21;1.42;;;1.33;;
71888;SDS011;59762;49.998;14.858;2023-07-20T10:04:53;2.83;;;1.58;;
71888;SDS011;59762;49.998;14.858;2023-07-20T10:07:19;3.55;;;1.50;;
71888;SDS011;59762;49.998;14.858;2023-07-20T10:09:48;1.67;;;1.40;;
71888;SDS011;59762;49.998;14.858;2023-07-20T10:12:17;2.05;;;1.30;;
71888;SDS011;59762;49.998;14.858;2023-07-20T10:14:54;4.35;;;1.70;;
71888;SDS011;59762;49.998;14.858;2023-07-20T10:17:31;4.35;;;2.63;;
71888;SDS011;59762;49.998;14.858;2023-07-20T10:19:57;2.67;;;1.58;;
71888;SDS011;59762;49.998;14.858;2023-07-20T10:22:26;4.05;;;1.60;;
71888;SDS011;59762;49.998;14.858;2023-07-20T10:24:52;3.95;;;1.45;;
71888;SDS011;59762;49.998;14.858;2023-07-20T10:27:22;1.90;;;1.48;;
71888;SDS011;59762;49.998;14.858;2023-07-20T10:29:48;2.08;;;1.38;;
71888;SDS011;59762;49.998;14.858;2023-07-20T10:32:16;3.03;;;1.45;;
71888;SDS011;59762;49.998;14.858;2023-07-20T10:34:42;2.05;;;1.23;;
71888;SDS011;59762;49.998;14.858;2023-07-20T10:37:08;2.70;;;1.35;;
71888;SDS011;59762;49.998;14.858;2023-07-20T10:39:33;2.35;;;1.33;;
71888;SDS011;59762;49.998;14.858;2023-07-20T10:42:00;3.92;;;1.67;;
71888;SDS011;59762;49.998;14.858;2023-07-20T10:44:28;1.80;;;1.20;;
71888;SDS011;59762;49.998;14.858;2023-07-20T10:47:01;1.90;;;1.15;;
71888;SDS011;59762;49.998;14.858;2023-07-20T10:49:28;3.38;;;1.40;;
71888;SDS011;59762;49.998;14.858;2023-07-20T10:51:58;1.77;;;1.25;;
71888;SDS011;59762;49.998;14.858;2023-07-20T10:56:50;1.30;;;1.17;;
71888;SDS011;59762;49.998;14.858;2023-07-20T11:01:57;1.65;;;1.15;;
71888;SDS011;59762;49.998;14.858;2023-07-20T11:04:40;2.60;;;1.40;;
71888;SDS011;59762;49.998;14.858;2023-07-20T11:07:07;3.28;;;1.60;;
71888;SDS011;59762;49.998;14.858;2023-07-20T11:09:34;2.00;;;1.33;;
71888;SDS011;59762;49.998;14.858;2023-07-20T11:12:16;2.78;;;1.33;;
71888;SDS011;59762;49.998;14.858;2023-07-20T11:14:43;4.07;;;1.80;;
71888;SDS011;59762;49.998;14.858;2023-07-20T11:17:19;1.50;;;1.40;;
71888;SDS011;59762;49.998;14.858;2023-07-20T11:19:48;2.67;;;1.83;;
71888;SDS011;59762;49.998;14.858;2023-07-20T11:22:16;3.08;;;1.55;;
71888;SDS011;59762;49.998;14.858;2023-07-20T11:24:42;2.00;;;1.60;;
71888;SDS011;59762;49.998;14.858;2023-07-20T11:27:08;1.77;;;1.30;;
71888;SDS011;59762;49.998;14.858;2023-07-20T11:29:34;1.50;;;1.27;;
71888;SDS011;59762;49.998;14.858;2023-07-20T11:32:02;1.58;;;1.40;;
71888;SDS011;59762;49.998;14.858;2023-07-20T11:34:31;3.97;;;1.60;;
71888;SDS011;59762;49.998;14.858;2023-07-20T11:36:58;1.88;;;1.50;;
71888;SDS011;59762;49.998;14.858;2023-07-20T11:39:24;4.15;;;1.95;;
71888;SDS011;59762;49.998;14.858;2023-07-20T11:41:52;2.22;;;1.80;;
71888;SDS011;59762;49.998;14.858;2023-07-20T11:44:18;1.75;;;1.48;;
71888;SDS011;59762;49.998;14.858;2023-07-20T11:46:46;2.10;;;1.83;;
71888;SDS011;59762;49.998;14.858;2023-07-20T11:49:12;3.90;;;1.92;;
71888;SDS011;59762;49.998;14.858;2023-07-20T11:51:38;3.65;;;1.65;;
71888;SDS011;59762;49.998;14.858;2023-07-20T11:54:06;2.40;;;1.92;;
71888;SDS011;59762;49.998;14.858;2023-07-20T11:56:33;3.22;;;1.92;;
71888;SDS011;59762;49.998;14.858;2023-07-20T11:58:59;4.80;;;1.60;;
71888;SDS011;59762;49.998;14.858;2023-07-20T12:01:27;3.45;;;1.90;;
71888;SDS011;59762;49.998;14.858;2023-07-20T12:03:55;3.83;;;1.67;;
71888;SDS011;59762;49.998;14.858;2023-07-20T12:06:25;3.90;;;1.60;;
71888;SDS011;59762;49.998;14.858;2023-07-20T12:08:56;4.20;;;1.70;;
71888;SDS011;59762;49.998;14.858;2023-07-20T12:11:33;2.33;;;1.80;;
71888;SDS011;59762;49.998;14.858;2023-07-20T12:13:59;2.35;;;1.63;;
71888;SDS011;59762;49.998;14.858;2023-07-20T12:16:29;3.25;;;1.60;;
71888;SDS011;59762;49.998;14.858;2023-07-20T12:21:27;3.10;;;1.50;;
71888;SDS011;59762;49.998;14.858;2023-07-20T12:23:55;2.53;;;1.60;;
71888;SDS011;59762;49.998;14.858;2023-07-20T12:26:22;1.77;;;1.48;;
71888;SDS011;59762;49.998;14.858;2023-07-20T12:28:49;2.83;;;1.50;;
71888;SDS011;59762;49.998;14.858;2023-07-20T12:31:15;1.58;;;1.48;;
71888;SDS011;59762;49.998;14.858;2023-07-20T12:33:40;2.05;;;1.38;;
71888;SDS011;59762;49.998;14.858;2023-07-20T12:36:07;1.50;;;1.30;;
71888;SDS011;59762;49.998;14.858;2023-07-20T12:38:34;2.42;;;1.50;;
71888;SDS011;59762;49.998;14.858;2023-07-20T12:41:00;2.53;;;1.73;;
71888;SDS011;59762;49.998;14.858;2023-07-20T12:43:26;2.00;;;1.50;;
71888;SDS011;59762;49.998;14.858;2023-07-20T12:45:52;2.65;;;1.40;;
71888;SDS011;59762;49.998;14.858;2023-07-20T12:48:18;2.97;;;1.23;;
71888;SDS011;59762;49.998;14.858;2023-07-20T12:50:44;2.00;;;1.40;;
71888;SDS011;59762;49.998;14.858;2023-07-20T12:53:10;3.75;;;1.55;;
71888;SDS011;59762;49.998;14.858;2023-07-20T12:55:35;8.43;;;1.58;;
71888;SDS011;59762;49.998;14.858;2023-07-20T12:58:02;2.05;;;1.30;;
71888;SDS011;59762;49.998;14.858;2023-07-20T13:00:28;2.05;;;1.40;;
71888;SDS011;59762;49.998;14.858;2023-07-20T13:02:53;2.22;;;1.20;;
71888;SDS011;59762;49.998;14.858;2023-07-20T13:05:19;3.75;;;1.67;;
71888;SDS011;59762;49.998;14.858;2023-07-20T13:07:45;1.77;;;1.38;;
71888;SDS011;59762;49.998;14.858;2023-07-20T13:10:11;1.60;;;1.50;;
71888;SDS011;59762;49.998;14.858;2023-07-20T13:12:37;1.90;;;1.33;;
71888;SDS011;59762;49.998;14.858;2023-07-20T13:15:04;4.35;;;1.60;;
71888;SDS011;59762;49.998;14.858;2023-07-20T13:17:32;1.95;;;1.50;;
71888;SDS011;59762;49.998;14.858;2023-07-20T13:20:01;1.58;;;1.45;;
71888;SDS011;59762;49.998;14.858;2023-07-20T13:22:31;1.98;;;1.40;;
71888;SDS011;59762;49.998;14.858;2023-07-20T13:24:58;1.75;;;1.30;;
71888;SDS011;59762;49.998;14.858;2023-07-20T13:27:23;1.42;;;1.15;;
71888;SDS011;59762;49.998;14.858;2023-07-20T13:29:51;1.77;;;1.25;;
71888;SDS011;59762;49.998;14.858;2023-07-20T13:32:17;1.92;;;1.20;;
71888;SDS011;59762;49.998;14.858;2023-07-20T13:34:43;1.40;;;1.20;;
71888;SDS011;59762;49.998;14.858;2023-07-20T13:37:10;2.00;;;1.50;;
71888;SDS011;59762;49.998;14.858;2023-07-20T13:39:36;4.75;;;1.35;;
71888;SDS011;59762;49.998;14.858;2023-07-20T13:42:02;4.32;;;1.40;;
71888;SDS011;59762;49.998;14.858;2023-07-20T13:44:30;3.38;;;1.27;;
71888;SDS011;59762;49.998;14.858;2023-07-20T13:46:56;2.40;;;1.30;;
71888;SDS011;59762;49.998;14.858;2023-07-20T13:49:22;1.30;;;1.20;;
71888;SDS011;59762;49.998;14.858;2023-07-20T13:51:48;3.33;;;1.30;;
71888;SDS011;59762;49.998;14.858;2023-07-20T13:54:13;2.30;;;1.50;;
71888;SDS011;59762;49.998;14.858;2023-07-20T13:56:39;2.28;;;1.45;;
71888;SDS011;59762;49.998;14.858;2023-07-20T13:59:05;1.65;;;1.35;;
71888;SDS011;59762;49.998;14.858;2023-07-20T14:01:31;1.75;;;1.13;;
71888;SDS011;59762;49.998;14.858;2023-07-20T14:03:58;1.98;;;1.38;;
71888;SDS011;59762;49.998;14.858;2023-07-20T14:06:24;2.03;;;1.10;;
71888;SDS011;59762;49.998;14.858;2023-07-20T14:08:50;2.55;;;1.15;;
71888;SDS011;59762;49.998;14.858;2023-07-20T14:11:16;2.60;;;1.60;;
71888;SDS011;59762;49.998;14.858;2023-07-20T14:13:41;2.47;;;1.30;;
71888;SDS011;59762;49.998;14.858;2023-07-20T14:16:07;2.30;;;1.27;;
71888;SDS011;59762;49.998;14.858;2023-07-20T14:18:33;1.70;;;1.50;;
71888;SDS011;59762;49.998;14.858;2023-07-20T14:20:59;5.28;;;1.67;;
71888;SDS011;59762;49.998;14.858;2023-07-20T14:23:27;2.58;;;1.20;;
71888;SDS011;59762;49.998;14.858;2023-07-20T14:25:53;2.05;;;1.40;;
71888;SDS011;59762;49.998;14.858;2023-07-20T14:28:18;3.58;;;1.30;;
71888;SDS011;59762;49.998;14.858;2023-07-20T14:30:44;4.03;;;1.23;;
71888;SDS011;59762;49.998;14.858;2023-07-20T14:33:10;1.60;;;1.30;;
71888;SDS011;59762;49.998;14.858;2023-07-20T14:35:35;3.17;;;1.40;;
71888;SDS011;59762;49.998;14.858;2023-07-20T14:38:01;2.65;;;1.20;;
71888;SDS011;59762;49.998;14.858;2023-07-20T14:40:26;1.90;;;1.30;;
71888;SDS011;59762;49.998;14.858;2023-07-20T14:42:52;1.77;;;1.35;;
71888;SDS011;59762;49.998;14.858;2023-07-20T14:45:18;1.65;;;1.40;;
71888;SDS011;59762;49.998;14.858;2023-07-20T14:47:44;4.30;;;1.65;;
71888;SDS011;59762;49.998;14.858;2023-07-20T14:50:10;1.50;;;1.10;;
71888;SDS011;59762;49.998;14.858;2023-07-20T14:52:36;2.70;;;1.25;;
71888;SDS011;59762;49.998;14.858;2023-07-20T14:55:02;1.77;;;1.25;;